Hauptseite
METAR-TAF:

METAR-TAF

Flughäfen :

Flughafen Pucallpa

Pucallpa, Peru

Breite: 08-25S, Länge: 074-36W, Höhe: 148 m

Beobachtung

Neuester Wetterbericht von vor 50 Minuten, um 11:00 UTC
Wind 2 kt aus Nordost
Temperatur 24°C
Luftfeuchtigkeit 94%
Luftdruck 1014 hPa
Sichtweite 10 km oder mehr
Aufgelockert bewölkt in der Höhe von 1500 ft
Durchbrochene Bewölkung in der Höhe von 8000 ft

METAR: SPCL 221100Z 04002KT 9999 SCT015 BKN080 24/23 Q1014 RMK PP000

Zeit: 06:50 (11:50 UTC)

Prognose

Neuester Wetterbericht von vor 50 Minuten, um 11:00 UTC
Gültige Prognose vom 22 um 12 UTC bis 23 um 12 UTC
Wind 2 kt aus unterschiedlichen Richtungen
Sichtweite 10 km oder mehr
Aufgelockert bewölkt in der Höhe von 2000 ft
Durchbrochene Bewölkung in der Höhe von 8000 ft

TAF: SPCL 221100Z 2212/2312 VRB02KT 9999 SCT020 BKN080 TX33/2220Z TN24/2311Z

Wetterbeobachtungen und Prognosen von mehr als 4000 Flughäfen (METAR und TAF Bericht).

Die verfügbaren Stationen werden durch gelbe und rote Markierungen auf der Karte dargestellt.

Führen Sie die Maus auf sie, um den Namen der Station zu sehen.

Darauf klicken, um die Beobachtung von Wetterbeobachtungen und Prognosen zu sehen.

Um die Karte zu ändern : klicken Sie auf den grünen Tasten mit einem schwarzen Kreuz Zum Vergrößern, auf den grünen Button mit einem Gedankenstrich zu verkleinern, oder auf die grünen Pfeile für benachbarte Karten.


METAR-TAF: